createdAt,value
2018-06-19T00:00:02.791Z,15.1
2018-06-19T00:05:02.824Z,14.8
2018-06-19T00:10:03.419Z,14.8
2018-06-19T00:15:02.991Z,15.0
2018-06-19T00:20:02.557Z,14.8
2018-06-19T00:25:03.159Z,15.0
2018-06-19T00:30:02.721Z,15.0
2018-06-19T00:35:03.350Z,15.0
2018-06-19T00:40:02.957Z,15.0
2018-06-19T00:45:02.504Z,15.1
2018-06-19T00:50:03.116Z,15.1
2018-06-19T00:55:02.678Z,15.3
2018-06-19T01:00:03.291Z,15.5
2018-06-19T01:05:02.898Z,15.6
2018-06-19T01:10:02.571Z,15.6
2018-06-19T01:15:03.121Z,15.6
2018-06-19T01:20:02.650Z,15.6
2018-06-19T01:25:03.220Z,15.6
2018-06-19T01:30:02.803Z,15.6
2018-06-19T01:35:02.534Z,15.6
2018-06-19T01:40:03.200Z,15.8
2018-06-19T01:45:02.763Z,15.8
2018-06-19T01:50:03.338Z,15.8
2018-06-19T01:55:02.952Z,15.8
2018-06-19T02:00:02.516Z,15.8
2018-06-19T02:05:03.059Z,15.8
2018-06-19T02:10:02.771Z,15.8
2018-06-19T02:15:03.357Z,15.6
2018-06-19T02:20:03.021Z,15.6
2018-06-19T02:25:02.654Z,15.6
2018-06-19T02:30:03.212Z,15.6
2018-06-19T02:35:02.860Z,15.6
2018-06-19T02:40:02.555Z,15.6
2018-06-19T02:45:03.075Z,15.5
2018-06-19T02:50:02.641Z,15.5
2018-06-19T02:55:03.182Z,15.5
2018-06-19T03:00:03.102Z,15.5
2018-06-19T03:05:02.767Z,15.5
2018-06-19T03:10:02.415Z,15.3
2018-06-19T03:15:02.999Z,15.3
2018-06-19T03:20:02.645Z,15.3
2018-06-19T03:25:03.235Z,15.3
2018-06-19T03:30:03.175Z,15.3
2018-06-19T03:35:03.067Z,15.3
2018-06-19T03:40:02.617Z,15.3
2018-06-19T03:45:03.240Z,15.3
2018-06-19T03:50:02.767Z,15.3
2018-06-19T03:55:03.342Z,15.3
2018-06-19T04:00:02.851Z,15.3
2018-06-19T04:05:02.508Z,15.3
2018-06-19T04:10:03.153Z,15.1
2018-06-19T04:15:02.691Z,15.1
2018-06-19T04:20:03.373Z,15.1
2018-06-19T04:25:02.983Z,15.1
2018-06-19T04:30:02.931Z,15.1
2018-06-19T04:35:02.501Z,15.3
2018-06-19T04:40:03.120Z,15.1
2018-06-19T04:45:02.720Z,15.1
2018-06-19T04:50:03.305Z,15.1
2018-06-19T04:55:02.871Z,15.1
2018-06-19T05:00:02.465Z,15.1
2018-06-19T05:05:03.036Z,15.3
2018-06-19T05:10:02.646Z,15.3
2018-06-19T05:15:03.235Z,15.5
2018-06-19T05:20:02.812Z,15.6
2018-06-19T05:25:03.359Z,15.6
2018-06-19T05:30:02.920Z,15.8
2018-06-19T05:35:02.615Z,15.8
2018-06-19T05:40:02.611Z,15.8
2018-06-19T05:45:03.319Z,15.8
2018-06-19T05:50:02.842Z,15.8
2018-06-19T05:55:02.444Z,15.8
2018-06-19T06:00:03.132Z,15.8
2018-06-19T06:05:02.778Z,16.0
2018-06-19T06:10:02.429Z,16.0
2018-06-19T06:15:03.093Z,16.0
2018-06-19T06:20:02.708Z,16.2
2018-06-19T06:25:03.275Z,16.2
2018-06-19T06:30:02.847Z,16.2
2018-06-19T06:35:02.553Z,16.3
2018-06-19T06:40:03.142Z,16.2
2018-06-19T06:45:02.657Z,16.3
2018-06-19T06:50:03.316Z,16.3
2018-06-19T06:55:02.901Z,16.6
2018-06-19T07:00:02.678Z,16.7
2018-06-19T07:05:03.235Z,16.7
2018-06-19T07:10:02.830Z,16.7
2018-06-19T07:15:02.587Z,17.0
2018-06-19T07:20:03.356Z,17.0
2018-06-19T07:25:02.980Z,17.1
2018-06-19T07:30:02.719Z,17.2
2018-06-19T07:35:02.399Z,17.5
2018-06-19T07:40:03.032Z,17.5
2018-06-19T07:45:02.600Z,17.7
2018-06-19T07:50:03.259Z,17.7
2018-06-19T07:55:02.859Z,17.7
2018-06-19T08:00:02.586Z,17.7
2018-06-19T08:05:03.178Z,17.7
2018-06-19T08:10:02.815Z,17.7
2018-06-19T08:15:02.444Z,18.1
2018-06-19T08:20:03.054Z,18.1
2018-06-19T08:25:02.671Z,18.1
2018-06-19T08:30:03.348Z,18.2
2018-06-19T08:35:02.908Z,18.8
2018-06-19T08:40:02.591Z,18.7
2018-06-19T08:45:03.124Z,19.1
2018-06-19T08:50:02.671Z,18.8
2018-06-19T08:55:03.234Z,20.1
2018-06-19T09:00:02.847Z,20.2
2018-06-19T09:05:02.478Z,20.7
2018-06-19T09:10:03.141Z,20.3
2018-06-19T09:15:02.657Z,20.1
2018-06-19T09:20:03.362Z,19.3
2018-06-19T09:25:03.161Z,19.3
2018-06-19T09:30:02.807Z,20.0
2018-06-19T09:35:02.440Z,19.7
2018-06-19T09:40:03.124Z,20.0
2018-06-19T09:45:02.728Z,20.0
2018-06-19T09:50:03.389Z,20.0
2018-06-19T09:55:02.997Z,20.2
2018-06-19T10:00:02.591Z,20.2
2018-06-19T10:05:03.213Z,20.7
2018-06-19T10:10:02.927Z,20.7
2018-06-19T10:15:02.618Z,20.7
2018-06-19T10:20:03.325Z,20.6
2018-06-19T10:25:02.921Z,21.2
2018-06-19T10:30:02.537Z,21.3
2018-06-19T10:35:03.237Z,21.0
2018-06-19T10:40:02.585Z,21.2
2018-06-19T10:45:03.126Z,20.8
2018-06-19T10:50:02.660Z,21.3
2018-06-19T10:55:03.237Z,21.3
2018-06-19T11:00:02.859Z,21.5
2018-06-19T11:05:02.584Z,22.0
2018-06-19T11:10:02.449Z,23.2
2018-06-19T11:15:03.041Z,24.8
2018-06-19T11:20:02.752Z,24.2
2018-06-19T11:25:02.832Z,25.0
2018-06-19T11:30:02.446Z,22.7
2018-06-19T11:35:03.079Z,21.8
2018-06-19T11:40:02.760Z,21.8
2018-06-19T11:45:03.328Z,21.8
2018-06-19T11:50:02.987Z,22.1
2018-06-19T11:55:02.588Z,22.5
2018-06-19T12:00:03.239Z,22.2
2018-06-19T12:05:02.777Z,22.0
2018-06-19T12:10:02.401Z,21.0
2018-06-19T12:15:02.943Z,21.0
2018-06-19T12:20:02.631Z,21.2
2018-06-19T12:25:03.283Z,21.7
2018-06-19T12:30:02.886Z,22.6
2018-06-19T12:35:02.491Z,23.0
2018-06-19T12:40:03.194Z,22.5
2018-06-19T12:45:02.839Z,22.7
2018-06-19T12:50:02.602Z,22.7
2018-06-19T12:55:03.181Z,22.5
2018-06-19T13:00:02.704Z,22.6
2018-06-19T13:05:03.298Z,23.0
2018-06-19T13:10:02.867Z,23.0
2018-06-19T13:15:02.507Z,22.3
2018-06-19T13:20:03.116Z,23.0
2018-06-19T13:25:02.692Z,23.1
2018-06-19T13:30:03.358Z,22.3
2018-06-19T13:35:02.985Z,21.7
2018-06-19T13:40:02.680Z,21.6
2018-06-19T13:45:03.283Z,21.7
2018-06-19T13:50:02.895Z,22.5
2018-06-19T13:55:02.541Z,23.3
2018-06-19T14:00:03.115Z,23.8
2018-06-19T14:05:02.709Z,23.3
2018-06-19T14:10:02.474Z,23.7
2018-06-19T14:15:03.067Z,23.2
2018-06-19T14:20:02.796Z,22.5
2018-06-19T14:25:02.395Z,22.1
2018-06-19T14:30:02.974Z,21.5
2018-06-19T14:35:02.609Z,20.8
2018-06-19T14:40:03.216Z,20.6
2018-06-19T14:45:03.002Z,20.7
2018-06-19T14:50:03.082Z,20.8
2018-06-19T14:55:02.632Z,21.2
2018-06-19T15:00:03.320Z,21.5
2018-06-19T15:05:02.950Z,21.8
2018-06-19T15:10:02.631Z,22.3
2018-06-19T15:15:02.555Z,22.7
2018-06-19T15:20:03.178Z,22.3
2018-06-19T15:25:02.781Z,22.1
2018-06-19T15:30:02.391Z,22.3
2018-06-19T15:35:03.042Z,22.1
2018-06-19T15:40:02.766Z,22.0
2018-06-19T15:45:02.446Z,22.2
2018-06-19T15:50:03.056Z,22.1
2018-06-19T15:55:02.647Z,22.1
2018-06-19T16:00:03.274Z,22.1
2018-06-19T16:05:02.846Z,21.8
2018-06-19T16:10:02.514Z,21.7
2018-06-19T16:15:03.165Z,21.6
2018-06-19T16:20:02.828Z,21.3
2018-06-19T16:25:03.398Z,21.6
2018-06-19T16:30:02.972Z,21.5
2018-06-19T16:40:03.246Z,22.2
2018-06-19T16:45:02.821Z,22.2
2018-06-19T16:50:02.472Z,22.0
2018-06-19T16:55:03.058Z,22.0
2018-06-19T17:00:02.750Z,22.0
2018-06-19T17:05:02.793Z,22.0
2018-06-19T17:10:02.465Z,22.2
2018-06-19T17:15:03.110Z,21.8
2018-06-19T17:20:02.666Z,21.6
2018-06-19T17:25:03.202Z,21.6
2018-06-19T17:30:02.820Z,21.6
2018-06-19T17:35:03.089Z,21.5
2018-06-19T17:40:02.720Z,21.6
2018-06-19T17:45:03.353Z,21.7
2018-06-19T17:50:02.982Z,21.5
2018-06-19T17:55:02.593Z,21.3
2018-06-19T18:00:03.289Z,21.2
2018-06-19T18:05:02.903Z,21.2
2018-06-19T18:10:02.574Z,21.2
2018-06-19T18:15:03.134Z,21.2
2018-06-19T18:20:02.707Z,21.0
2018-06-19T18:25:03.288Z,21.0
2018-06-19T18:30:03.194Z,20.8
2018-06-19T18:35:02.880Z,20.8
2018-06-19T18:40:02.474Z,20.8
2018-06-19T18:45:03.135Z,20.8
2018-06-19T18:50:02.738Z,20.7
2018-06-19T18:55:02.390Z,20.7
2018-06-19T19:00:02.983Z,20.7
2018-06-19T19:05:02.659Z,20.6
2018-06-19T19:10:03.263Z,20.7
2018-06-19T19:15:02.869Z,20.6
2018-06-19T19:20:02.480Z,20.6
2018-06-19T19:25:03.045Z,20.6
2018-06-19T19:30:02.681Z,20.3
2018-06-19T19:35:03.345Z,20.3
2018-06-19T19:40:02.972Z,20.3
2018-06-19T19:45:02.567Z,20.2
2018-06-19T19:50:03.164Z,20.2
2018-06-19T19:55:02.736Z,20.2
2018-06-19T20:00:03.686Z,20.2
2018-06-19T20:05:03.381Z,20.2
2018-06-19T20:10:03.090Z,20.3
2018-06-19T20:15:02.644Z,20.3
2018-06-19T20:20:03.246Z,20.2
2018-06-19T20:25:02.894Z,20.2
2018-06-19T20:30:02.760Z,20.2
2018-06-19T20:35:03.359Z,20.1
2018-06-19T20:40:03.070Z,20.1
2018-06-19T20:45:02.734Z,20.1
2018-06-19T20:50:03.304Z,20.2
2018-06-19T20:55:02.854Z,20.2
2018-06-19T21:00:02.457Z,20.2
2018-06-19T21:05:03.107Z,20.2
2018-06-19T21:10:02.736Z,20.2
2018-06-19T21:15:03.288Z,20.2
2018-06-19T21:20:02.863Z,20.0
2018-06-19T21:25:02.511Z,19.7
2018-06-19T21:30:03.188Z,19.7
2018-06-19T21:35:03.266Z,19.7
2018-06-19T21:40:02.892Z,19.7
2018-06-19T21:45:02.499Z,19.7
2018-06-19T21:50:03.224Z,19.7
2018-06-19T21:55:02.843Z,19.5
2018-06-19T22:00:02.444Z,19.5
2018-06-19T22:05:03.027Z,19.5
2018-06-19T22:10:02.988Z,19.7
2018-06-19T22:15:02.568Z,19.7
2018-06-19T22:20:03.243Z,19.5
2018-06-19T22:25:02.791Z,19.7
2018-06-19T22:30:02.446Z,19.5
2018-06-19T22:35:03.131Z,19.5
2018-06-19T22:40:02.729Z,19.5
2018-06-19T22:45:03.371Z,19.5
2018-06-19T22:50:02.949Z,19.3
2018-06-19T22:55:02.611Z,19.3
2018-06-19T23:00:03.248Z,19.5
2018-06-19T23:05:03.100Z,19.5
2018-06-19T23:10:02.737Z,19.5
2018-06-19T23:15:03.357Z,19.5
2018-06-19T23:20:02.968Z,19.3
2018-06-19T23:25:02.590Z,19.3
2018-06-19T23:30:03.221Z,19.5
2018-06-19T23:35:02.918Z,19.3
2018-06-19T23:40:02.605Z,19.3
2018-06-19T23:45:03.203Z,19.2
2018-06-19T23:50:02.824Z,19.2
2018-06-19T23:55:02.460Z,19.3
